Have a Safe July 4th! 

Flight Track Log - Related Links

Times and Time Zones

All times are in EDT time to prevent confusion due to time zone crossing. See the JUS327 flight status page for this flight to view local times or setup timezone preferences in your user account.

Time Position Orientation Groundspeed Altitude Reporting Facility
EDT Latitude Longitude Course Direction KTS MPH feet Rate Location/Type
Fri 06:26:08 PM 42.2508 -83.5539 318° Northwest 130 150 1,900  Level Cleveland Center
Fri 06:27:10 PM 42.2872 -83.5978 318° Northwest 184 212 3,400 1,707 Climbing Cleveland Center
Fri 06:28:11 PM 42.3231 -83.6583 309° West 224 258 5,400 2,056 Climbing Cleveland Center
Fri 06:28:58 PM 42.3425 -83.7128 296° West 244 281 7,100 2,860 Climbing Cleveland Center
Fri 06:29:58 PM 42.3483 -83.8058 275° West 252 290 10,500 2,867 Climbing Cleveland Center
Fri 06:31:58 PM 42.3922 -84.0189 286° West 283 326 15,700 2,600 Climbing Cleveland Center
Fri 06:32:58 PM 42.4139 -84.1297 285° West 298 343 18,300 2,600 Climbing Cleveland Center
Fri 06:33:58 PM 42.4183 -84.2483 273° West 307 353 20,900 2,277 Climbing Cleveland Center
Fri 06:35:44 PM 42.4306 -84.4594 275° West 337 388 24,600 2,036 Climbing Chicago Center
Fri 06:36:46 PM 42.4397 -84.6133 275° West 344 396 26,600 1,742 Climbing Chicago Center
Fri 06:37:48 PM 42.4419 -84.7497 271° West 359 413 28,200 1,597 Climbing Chicago Center
Fri 06:38:50 PM 42.4492 -84.8897 274° West 370 426 29,900 1,500 Climbing Chicago Center
Fri 06:39:52 PM 42.4556 -85.0317 274° West 377 434 31,300 1,306 Climbing Chicago Center
Fri 06:40:54 PM 42.4553 -85.1775 270° West 384 442 32,600 1,113 Climbing Chicago Center
Fri 06:41:56 PM 42.4581 -85.3261 272° West 392 451 33,600 677 Climbing Chicago Center
Fri 06:42:58 PM 42.4619 -85.5100 272° West 402 463 34,000 194 Climbing Chicago Center
Fri 06:44:00 PM 42.4639 -85.6592 271° West 397 457 34,000  Level Chicago Center
Fri 06:45:02 PM 42.4625 -85.8100 269° West 399 459 34,000  Level Chicago Center
Fri 06:46:05 PM 42.4628 -85.9603 270° West 400 460 34,000  Level Chicago Center
Fri 06:47:07 PM 42.4239 -86.0953 249° West 398 458 34,000  Level Chicago Center
Fri 06:48:09 PM 42.3681 -86.2189 239° Southwest 388 447 34,000  Level Chicago Center
Fri 06:49:11 PM 42.3206 -86.3494 244° Southwest 388 447 34,000  Level Chicago Center
Fri 06:50:13 PM 42.2756 -86.4914 247° West 388 447 34,000  Level Chicago Center
Fri 06:51:15 PM 42.2242 -86.6522 247° West 391 450 34,000  Level Chicago Center
Fri 06:52:17 PM 42.1861 -86.7681 246° West 390 449 34,000  Level Chicago Center
Fri 06:53:19 PM 42.1292 -86.9239 244° Southwest 391 450 34,000  Level Chicago Center
Fri 06:54:21 PM 42.0839 -87.0567 245° Southwest 393 452 34,000  Level Chicago Center
Fri 06:55:23 PM 42.0392 -87.1900 246° West 393 452 34,000  Level Chicago Center
Fri 06:56:25 PM 41.9936 -87.3236 245° Southwest 396 456 34,000  Level Chicago Center
Fri 06:57:28 PM 41.9458 -87.4553 244° Southwest 394 453 34,000  Level Chicago Center
Fri 06:58:30 PM 41.8886 -87.6136 244° Southwest 396 456 34,000  Level Chicago Center
Fri 06:59:32 PM 41.8411 -87.7467 244° Southwest 400 460 34,000  Level Chicago Center
Fri 07:00:34 PM 41.7939 -87.8786 244° Southwest 398 458 34,000  Level Chicago Center
Fri 07:01:36 PM 41.7467 -88.0094 244° Southwest 396 456 34,000  Level Chicago Center
Fri 07:02:38 PM 41.6908 -88.1681 245° Southwest 397 457 34,000  Level Chicago Center
Fri 07:03:40 PM 41.6431 -88.2997 244° Southwest 400 460 34,000  Level Chicago Center
Fri 07:04:42 PM 41.5953 -88.4314 244° Southwest 400 460 34,000  Level Chicago Center
Fri 07:05:44 PM 41.5464 -88.5631 244° Southwest 400 460 34,000  Level Chicago Center
Fri 07:06:46 PM 41.5100 -88.7022 251° West 401 461 34,000  Level Chicago Center
Fri 07:07:48 PM 41.4758 -88.8742 255° West 403 464 34,000  Level Chicago Center
Fri 07:08:51 PM 41.4386 -89.0139 250° West 403 464 34,000  Level Chicago Center
Fri 07:09:53 PM 41.3981 -89.1533 249° West 406 467 34,000  Level Chicago Center
Fri 07:10:55 PM 41.3656 -89.2864 252° West 405 466 34,000  Level Chicago Center
Fri 07:11:57 PM 41.3225 -89.4572 251° West 407 468 34,000  Level Chicago Center
Fri 07:12:59 PM 41.2844 -89.5983 250° West 407 468 34,000  Level Chicago Center
Fri 07:14:01 PM 41.2467 -89.7403 251° West 409 471 34,000  Level Chicago Center
Fri 07:15:03 PM 41.2086 -89.8819 250° West 410 472 34,000  Level Chicago Center
Fri 07:16:05 PM 41.1714 -90.0239 251° West 411 473 34,000  Level Chicago Center
Fri 07:17:07 PM 41.1256 -90.1942 250° West 411 473 34,000  Level Chicago Center
Fri 07:18:09 PM 41.0858 -90.3383 250° West 418 481 34,000  Level Chicago Center
Fri 07:19:11 PM 41.0469 -90.4797 250° West 415 478 34,000  Level Chicago Center
Fri 07:20:13 PM 41.0081 -90.6194 250° West 409 471 34,000  Level Chicago Center
Fri 07:21:15 PM 40.9661 -90.7578 248° West 407 468 34,000  Level Chicago Center
Fri 07:22:17 PM 40.9203 -90.9256 250° West 407 468 34,000  Level Chicago Center
Fri 07:23:19 PM 40.8847 -91.0653 251° West 404 465 34,000  Level Chicago Center
Fri 07:24:21 PM 40.8447 -91.2047 249° West 406 467 34,000  Level Chicago Center
Fri 07:25:23 PM 40.8064 -91.3406 250° West 406 467 34,000  Level Chicago Center
Fri 07:26:25 PM 40.7683 -91.4789 250° West 406 467 34,000  Level Chicago Center
Fri 07:27:27 PM 40.7197 -91.6422 249° West 404 465 34,000  Level Chicago Center
Fri 07:28:29 PM 40.6808 -91.7803 250° West 405 466 34,000  Level Chicago Center
Fri 07:29:31 PM 40.6411 -91.9169 249° West 404 465 34,000  Level Chicago Center
Fri 07:30:23 PM 40.6086 -92.0256 249° West 404 465 34,000  Level Kansas City Center
Fri 07:31:25 PM 40.5689 -92.1642 249° West 406 467 34,000  Level Kansas City Center
Fri 07:32:27 PM 40.5231 -92.3283 250° West 405 466 34,000  Level Kansas City Center
Fri 07:33:29 PM 40.4867 -92.4503 249° West 407 468 34,000  Level Kansas City Center
Fri 07:34:31 PM 40.4364 -92.6156 248° West 407 468 34,000  Level Kansas City Center
Fri 07:35:33 PM 40.3936 -92.7581 249° West 405 466 34,000  Level Kansas City Center
Fri 07:36:35 PM 40.3525 -92.8900 248° West 407 468 34,000  Level Kansas City Center
Fri 07:37:37 PM 40.3006 -93.0439 246° West 411 473 34,000  Level Kansas City Center
Fri 07:38:39 PM 40.2661 -93.1706 250° West 413 475 34,000  Level Kansas City Center
Fri 07:39:41 PM 40.2258 -93.3100 249° West 413 475 34,000  Level Kansas City Center
Fri 07:40:43 PM 40.1742 -93.4756 248° West 414 476 34,000  Level Kansas City Center
Fri 07:41:45 PM 40.1319 -93.6153 248° West 416 479 34,000  Level Kansas City Center
Fri 07:42:47 PM 40.0886 -93.7556 248° West 418 481 34,000  Level Kansas City Center
Fri 07:43:49 PM 40.0467 -93.8950 249° West 418 481 34,000  Level Kansas City Center
Fri 07:44:51 PM 40.0017 -94.0333 247° West 418 481 34,000  Level Kansas City Center
Fri 07:45:53 PM 39.9533 -94.1867 248° West 418 481 34,000  Level Kansas City Center
Fri 07:46:55 PM 39.9042 -94.3444 248° West 421 484 34,000  Level Kansas City Center
Fri 07:47:57 PM 39.8622 -94.4794 248° West 420 483 34,000  Level Kansas City Center
Fri 07:49:00 PM 39.8114 -94.6386 247° West 426 490 34,000  Level Kansas City Center
Fri 07:50:02 PM 39.7686 -94.7736 248° West 424 488 34,000  Level Kansas City Center
Fri 07:51:04 PM 39.7178 -94.9319 247° West 426 490 34,000  Level Kansas City Center
Fri 07:52:06 PM 39.6744 -95.0667 247° West 426 490 34,000  Level Kansas City Center
Fri 07:53:08 PM 39.6236 -95.2242 247° West 427 491 34,000  Level Kansas City Center
Fri 07:54:10 PM 39.5794 -95.3594 247° West 428 493 34,000  Level Kansas City Center
Fri 07:55:12 PM 39.5269 -95.5172 247° West 430 495 34,000 -435 Level Kansas City Center
Fri 07:56:14 PM 39.4825 -95.6522 247° West 430 495 33,100 -1,887 Descending Kansas City Center
Fri 07:57:16 PM 39.4292 -95.8125 247° West 435 501 30,100 -2,661 Descending Kansas City Center
Fri 07:58:18 PM 39.3867 -95.9492 248° West 429 494 27,600 -2,371 Descending Kansas City Center
Fri 07:59:20 PM 39.3342 -96.0992 246° West 410 472 25,200 -1,597 Descending Kansas City Center
Fri 08:00:22 PM 39.2869 -96.2261 244° Southwest 400 460 24,300 -1,500 Descending Kansas City Center
Fri 08:01:24 PM 39.2358 -96.3692 245° Southwest 403 464 22,100 -2,129 Descending Kansas City Center
Fri 08:02:26 PM 39.1997 -96.4911 249° West 385 443 19,900 -2,323 Descending Kansas City Center
Fri 08:03:28 PM 39.1578 -96.6269 248° West 368 423 17,300 -2,129 Descending Kansas City Center
Fri 08:04:30 PM 39.1106 -96.7439 243° Southwest 378 435 15,500 -1,984 Descending Kansas City Center
Fri 08:05:32 PM 39.0700 -96.8725 248° West 356 410 13,200 -1,839 Descending Kansas City Center
Fri 08:06:34 PM 39.0297 -96.9903 246° West 349 402 11,700 -1,306 Descending Kansas City Center
Fri 08:07:36 PM 38.9878 -97.1056 245° Southwest 343 395 10,500 -919 Descending Kansas City Center
Fri 08:08:38 PM 38.9503 -97.1994 243° Southwest 286 329 9,800 -823 Descending Kansas City Center
Fri 08:09:40 PM 38.9242 -97.2761 246° West 247 284 8,800 -1,161 Descending Kansas City Center
Fri 08:10:42 PM 38.8956 -97.3578 246° West 241 277 7,400 -1,355 Descending Kansas City Center
Fri 08:11:44 PM 38.8711 -97.4294 246° West 214 246 6,000 -1,258 Descending Kansas City Center
Fri 08:12:46 PM 38.8469 -97.4981 246° West 203 234 4,800 -1,113 Descending Kansas City Center
Fri 08:13:48 PM 38.8156 -97.5517 233° Southwest 195 224 3,700 -968 Descending Kansas City Center
Fri 08:14:50 PM 38.7586 -97.5578 185° South 195 224 2,800 -484 Descending Kansas City Center
Fri 08:15:52 PM 38.7256 -97.5778 205° Southwest 165 190 2,700 -242 Descending Kansas City Center
Fri 08:16:54 PM 38.7256 -97.6328 270° West 151 174 2,300 -484 Descending Kansas City Center
Fri 08:17:56 PM 38.7528 -97.6461 339° North 132 152 1,700 -581 Descending Kansas City Center

Login

Don't have an account? Register now (free) for customized features, flight alerts, and more!